EFW8MP LPMA-EGKK
Flight info
| Callsign | EFW8MP |
|---|---|
| Flight time | N/A |
| Altitude | 34000 |
| Route | DEGUN1W DEGUN DCT RULET DCT GALPA DCT VABEM DCT TUNAV DCT IBIDO DCT DEMOS DCT KORUL DCT FEJAC DCT JSY DCT REVTU UP88 VASUX VASUX1G |
| Aircraft | A321/M-SDE3FGIJ1KRWXY/LB1 |
Departure
| Time | N/A |
|---|---|
| Airport | Cristiano Ronaldo International Airport (LPMA) |
Arrival
| Time | 2026-05-04 18:53 |
|---|---|
| Airport | London Gatwick Airport (EGKK) |
| Time | Latitude | Longitude | Altitude | Speed | Heading |
|---|---|---|---|---|---|
| 2026-05-04 16:50 | 39.28579 | -11.39539 | 34182 ft | 486 kts | 21° |
| 2026-05-04 16:51 | 39.37380 | -11.33039 | 34172 ft | 486 kts | 21° |
| 2026-05-04 16:52 | 39.49109 | -11.24400 | 34184 ft | 485 kts | 21° |
| 2026-05-04 16:53 | 39.57896 | -11.17874 | 34173 ft | 485 kts | 21° |
| 2026-05-04 16:54 | 39.69509 | -11.09208 | 34167 ft | 482 kts | 21° |
| 2026-05-04 16:55 | 39.86843 | -10.96256 | 34136 ft | 479 kts | 21° |
| 2026-05-04 16:56 | 40.01305 | -10.85389 | 34139 ft | 480 kts | 21° |
| 2026-05-04 16:57 | 40.09987 | -10.78849 | 34142 ft | 481 kts | 21° |
| 2026-05-04 16:58 | 40.21584 | -10.70063 | 34145 ft | 482 kts | 21° |
| 2026-05-04 17:00 | 40.38991 | -10.56804 | 34170 ft | 483 kts | 21° |
| 2026-05-04 17:01 | 40.53513 | -10.45688 | 34132 ft | 483 kts | 22° |
| 2026-05-04 17:02 | 40.65141 | -10.36753 | 34136 ft | 485 kts | 22° |
| 2026-05-04 17:03 | 40.73853 | -10.30031 | 34127 ft | 483 kts | 22° |
| 2026-05-04 17:03 | 40.82541 | -10.23273 | 34127 ft | 484 kts | 22° |
| 2026-05-04 17:04 | 40.94154 | -10.14246 | 34130 ft | 484 kts | 23° |
| 2026-05-04 17:05 | 41.05761 | -10.05191 | 34118 ft | 485 kts | 23° |
| 2026-05-04 17:06 | 41.14481 | -9.98352 | 34158 ft | 486 kts | 24° |
| 2026-05-04 17:07 | 41.22216 | -9.92272 | 34133 ft | 485 kts | 23° |
| 2026-05-04 17:07 | 41.28997 | -9.86931 | 34129 ft | 485 kts | 24° |
| 2026-05-04 17:08 | 41.37708 | -9.80044 | 34126 ft | 488 kts | 24° |
| 2026-05-04 17:09 | 41.43554 | -9.75417 | 34117 ft | 489 kts | 24° |
| 2026-05-04 17:09 | 41.49408 | -9.70770 | 34116 ft | 490 kts | 24° |
| 2026-05-04 17:10 | 41.64067 | -9.59088 | 34133 ft | 491 kts | 25° |
| 2026-05-04 17:11 | 41.69925 | -9.54403 | 34135 ft | 490 kts | 25° |
| 2026-05-04 17:12 | 41.78704 | -9.47357 | 34123 ft | 490 kts | 25° |
| 2026-05-04 17:13 | 41.93271 | -9.35626 | 34103 ft | 488 kts | 26° |
| 2026-05-04 17:14 | 42.04963 | -9.26322 | 34121 ft | 488 kts | 26° |
| 2026-05-04 17:15 | 42.13737 | -9.19341 | 34116 ft | 488 kts | 26° |
| 2026-05-04 17:16 | 42.25387 | -9.09992 | 34133 ft | 487 kts | 26° |
| 2026-05-04 17:17 | 42.37007 | -9.00649 | 34107 ft | 486 kts | 27° |
| 2026-05-04 17:18 | 42.48629 | -8.91253 | 34103 ft | 487 kts | 27° |
| 2026-05-04 17:19 | 42.60255 | -8.81805 | 34098 ft | 487 kts | 27° |
| 2026-05-04 17:20 | 42.71882 | -8.72330 | 34116 ft | 487 kts | 27° |
| 2026-05-04 17:20 | 42.80602 | -8.65196 | 34105 ft | 488 kts | 27° |
| 2026-05-04 17:21 | 42.91261 | -8.56442 | 34118 ft | 489 kts | 28° |
| 2026-05-04 17:22 | 42.97088 | -8.51640 | 34109 ft | 489 kts | 28° |
| 2026-05-04 17:23 | 43.08729 | -8.41999 | 34108 ft | 489 kts | 28° |
| 2026-05-04 17:24 | 43.17460 | -8.34754 | 34092 ft | 489 kts | 28° |
| 2026-05-04 17:25 | 43.29080 | -8.25056 | 34082 ft | 489 kts | 28° |
| 2026-05-04 17:26 | 43.40703 | -8.15331 | 34086 ft | 489 kts | 29° |
| 2026-05-04 17:27 | 43.55208 | -8.03124 | 34080 ft | 488 kts | 29° |
| 2026-05-04 17:28 | 43.66784 | -7.93326 | 34062 ft | 488 kts | 29° |
| 2026-05-04 17:29 | 43.84072 | -7.78616 | 34058 ft | 487 kts | 30° |
| 2026-05-04 17:31 | 43.98466 | -7.66287 | 34059 ft | 486 kts | 30° |
| 2026-05-04 17:32 | 44.12828 | -7.53912 | 34052 ft | 486 kts | 30° |
| 2026-05-04 17:33 | 44.24325 | -7.43975 | 34041 ft | 486 kts | 31° |
| 2026-05-04 17:34 | 44.35789 | -7.34001 | 34037 ft | 485 kts | 31° |
| 2026-05-04 17:35 | 44.50087 | -7.21482 | 34035 ft | 485 kts | 31° |
| 2026-05-04 17:36 | 44.55810 | -7.16457 | 34032 ft | 485 kts | 31° |
| 2026-05-04 17:36 | 44.61536 | -7.11426 | 34030 ft | 486 kts | 31° |
| 2026-05-04 17:37 | 44.67261 | -7.06389 | 34028 ft | 486 kts | 31° |
| 2026-05-04 17:37 | 44.72998 | -7.01352 | 34030 ft | 486 kts | 31° |
| 2026-05-04 17:38 | 44.78724 | -6.96281 | 34031 ft | 486 kts | 32° |
| 2026-05-04 17:38 | 44.84427 | -6.91169 | 34028 ft | 486 kts | 33° |
| 2026-05-04 17:39 | 44.92701 | -6.82925 | 34023 ft | 486 kts | 36° |
| 2026-05-04 17:39 | 44.98106 | -6.77297 | 34021 ft | 486 kts | 36° |
| 2026-05-04 17:40 | 45.03579 | -6.71697 | 34026 ft | 486 kts | 35° |
| 2026-05-04 17:40 | 45.09079 | -6.66146 | 34025 ft | 486 kts | 35° |
| 2026-05-04 17:41 | 45.14574 | -6.60574 | 34021 ft | 485 kts | 36° |
| 2026-05-04 17:41 | 45.20055 | -6.54982 | 34017 ft | 485 kts | 36° |
| 2026-05-04 17:42 | 45.25535 | -6.49373 | 34017 ft | 486 kts | 36° |
| 2026-05-04 17:42 | 45.31009 | -6.43753 | 34017 ft | 486 kts | 36° |
| 2026-05-04 17:43 | 45.36490 | -6.38118 | 34021 ft | 486 kts | 36° |
| 2026-05-04 17:43 | 45.41964 | -6.32466 | 34018 ft | 486 kts | 36° |
| 2026-05-04 17:44 | 45.47441 | -6.26811 | 34023 ft | 486 kts | 36° |
| 2026-05-04 17:44 | 45.52906 | -6.21151 | 34016 ft | 486 kts | 37° |
| 2026-05-04 17:45 | 45.58375 | -6.15467 | 34014 ft | 487 kts | 37° |
| 2026-05-04 17:45 | 45.63852 | -6.09759 | 34014 ft | 487 kts | 37° |
| 2026-05-04 17:46 | 45.69288 | -6.04075 | 34019 ft | 487 kts | 37° |
| 2026-05-04 17:46 | 45.74761 | -5.98352 | 34020 ft | 487 kts | 37° |
| 2026-05-04 17:47 | 45.80272 | -5.92583 | 34022 ft | 487 kts | 37° |
| 2026-05-04 17:47 | 45.85703 | -5.86883 | 34014 ft | 487 kts | 37° |
| 2026-05-04 17:48 | 45.91164 | -5.81123 | 34019 ft | 487 kts | 37° |
| 2026-05-04 17:48 | 45.96623 | -5.75348 | 34021 ft | 487 kts | 37° |
| 2026-05-04 17:49 | 46.02080 | -5.69562 | 34019 ft | 487 kts | 37° |
| 2026-05-04 17:49 | 46.07529 | -5.63777 | 34026 ft | 487 kts | 37° |
| 2026-05-04 17:50 | 46.12979 | -5.57984 | 34025 ft | 486 kts | 37° |
| 2026-05-04 17:50 | 46.18407 | -5.52183 | 34010 ft | 486 kts | 38° |
| 2026-05-04 17:51 | 46.23836 | -5.46370 | 34007 ft | 486 kts | 38° |
| 2026-05-04 17:51 | 46.29270 | -5.40540 | 34016 ft | 486 kts | 38° |
| 2026-05-04 17:52 | 46.34696 | -5.34706 | 34021 ft | 486 kts | 38° |
| 2026-05-04 17:52 | 46.40117 | -5.28866 | 34027 ft | 486 kts | 38° |
| 2026-05-04 17:53 | 46.45527 | -5.23007 | 34007 ft | 485 kts | 38° |
| 2026-05-04 17:53 | 46.50936 | -5.17144 | 34027 ft | 485 kts | 38° |
| 2026-05-04 17:54 | 46.56340 | -5.11285 | 34025 ft | 484 kts | 38° |
| 2026-05-04 17:54 | 46.61723 | -5.05415 | 34024 ft | 484 kts | 38° |
| 2026-05-04 17:55 | 46.66953 | -4.99704 | 34017 ft | 484 kts | 38° |
| 2026-05-04 17:55 | 46.72332 | -4.93822 | 34024 ft | 483 kts | 38° |
| 2026-05-04 17:56 | 46.77696 | -4.87916 | 33995 ft | 483 kts | 39° |
| 2026-05-04 17:56 | 46.83057 | -4.81988 | 34007 ft | 484 kts | 39° |
| 2026-05-04 17:57 | 46.88391 | -4.76091 | 34011 ft | 484 kts | 39° |
| 2026-05-04 17:57 | 46.93759 | -4.70156 | 34021 ft | 484 kts | 39° |
| 2026-05-04 17:58 | 46.99123 | -4.64224 | 34023 ft | 483 kts | 39° |
| 2026-05-04 17:58 | 47.04480 | -4.58272 | 34018 ft | 483 kts | 39° |
| 2026-05-04 17:59 | 47.09819 | -4.52311 | 34016 ft | 482 kts | 39° |
| 2026-05-04 18:00 | 47.17817 | -4.43367 | 34023 ft | 481 kts | 40° |
| 2026-05-04 18:00 | 47.23135 | -4.37409 | 34024 ft | 480 kts | 40° |
| 2026-05-04 18:01 | 47.28438 | -4.31453 | 34023 ft | 480 kts | 39° |
| 2026-05-04 18:01 | 47.33748 | -4.25497 | 34022 ft | 479 kts | 40° |
| 2026-05-04 18:02 | 47.41678 | -4.16534 | 34018 ft | 479 kts | 40° |
| 2026-05-04 18:02 | 47.46962 | -4.10526 | 34000 ft | 480 kts | 40° |
| 2026-05-04 18:03 | 47.52252 | -4.04500 | 34002 ft | 481 kts | 40° |
| 2026-05-04 18:03 | 47.57547 | -3.98437 | 34000 ft | 482 kts | 40° |
| 2026-05-04 18:04 | 47.62843 | -3.92348 | 34007 ft | 482 kts | 40° |
| 2026-05-04 18:05 | 47.70804 | -3.83204 | 34007 ft | 483 kts | 39° |
| 2026-05-04 18:05 | 47.76119 | -3.77109 | 33996 ft | 483 kts | 39° |
| 2026-05-04 18:06 | 47.84068 | -3.67933 | 34010 ft | 482 kts | 39° |
| 2026-05-04 18:06 | 47.89359 | -3.61794 | 34010 ft | 482 kts | 40° |
| 2026-05-04 18:07 | 47.94638 | -3.55651 | 34001 ft | 482 kts | 40° |
| 2026-05-04 18:07 | 47.99916 | -3.49496 | 34004 ft | 481 kts | 40° |
| 2026-05-04 18:08 | 48.05185 | -3.43336 | 34006 ft | 480 kts | 40° |
| 2026-05-04 18:08 | 48.09552 | -3.38225 | 33994 ft | 480 kts | 40° |
| 2026-05-04 18:09 | 48.20083 | -3.25862 | 34002 ft | 481 kts | 40° |
| 2026-05-04 18:10 | 48.25347 | -3.19649 | 34005 ft | 481 kts | 40° |
| 2026-05-04 18:10 | 48.30600 | -3.13417 | 34009 ft | 481 kts | 40° |
| 2026-05-04 18:11 | 48.35851 | -3.07179 | 34015 ft | 481 kts | 40° |
| 2026-05-04 18:11 | 48.41106 | -3.00930 | 33989 ft | 481 kts | 41° |
| 2026-05-04 18:12 | 48.46363 | -2.94662 | 33994 ft | 482 kts | 41° |
| 2026-05-04 18:12 | 48.51622 | -2.88369 | 34007 ft | 483 kts | 41° |
| 2026-05-04 18:13 | 48.56884 | -2.82054 | 34015 ft | 484 kts | 41° |
| 2026-05-04 18:14 | 48.64775 | -2.72543 | 34021 ft | 484 kts | 41° |
| 2026-05-04 18:14 | 48.70031 | -2.66184 | 34023 ft | 484 kts | 41° |
| 2026-05-04 18:15 | 48.80573 | -2.53454 | 33993 ft | 486 kts | 40° |
| 2026-05-04 18:16 | 48.85948 | -2.47201 | 33997 ft | 488 kts | 40° |
| 2026-05-04 18:16 | 48.91345 | -2.40954 | 34004 ft | 488 kts | 40° |
| 2026-05-04 18:17 | 48.99440 | -2.31510 | 34014 ft | 489 kts | 40° |
| 2026-05-04 18:18 | 49.07511 | -2.22005 | 34018 ft | 489 kts | 40° |
| 2026-05-04 18:18 | 49.12882 | -2.15620 | 34000 ft | 489 kts | 40° |
| 2026-05-04 18:19 | 49.20943 | -2.06006 | 34010 ft | 491 kts | 39° |
| 2026-05-04 18:19 | 49.26728 | -2.00730 | 33992 ft | 477 kts | 31° |
| 2026-05-04 18:20 | 49.32468 | -1.95882 | 33994 ft | 473 kts | 31° |
| 2026-05-04 18:20 | 49.38211 | -1.90970 | 33994 ft | 472 kts | 31° |
| 2026-05-04 18:21 | 49.43945 | -1.86057 | 33995 ft | 472 kts | 31° |
| 2026-05-04 18:21 | 49.49688 | -1.81141 | 33998 ft | 472 kts | 31° |
| 2026-05-04 18:22 | 49.55428 | -1.76228 | 33996 ft | 472 kts | 31° |
| 2026-05-04 18:22 | 49.61294 | -1.71672 | 34008 ft | 474 kts | 21° |
| 2026-05-04 18:23 | 49.67512 | -1.68267 | 34001 ft | 474 kts | 21° |
| 2026-05-04 18:23 | 49.70619 | -1.66555 | 33733 ft | 474 kts | 21° |
| 2026-05-04 18:23 | 49.73725 | -1.64834 | 33457 ft | 474 kts | 21° |
| 2026-05-04 18:24 | 49.76814 | -1.63115 | 33176 ft | 471 kts | 21° |
| 2026-05-04 18:24 | 49.79897 | -1.61400 | 32910 ft | 471 kts | 21° |
| 2026-05-04 18:24 | 49.82990 | -1.59680 | 32077 ft | 474 kts | 21° |
| 2026-05-04 18:24 | 49.86103 | -1.57945 | 31186 ft | 478 kts | 22° |
| 2026-05-04 18:25 | 49.89226 | -1.56205 | 30621 ft | 474 kts | 22° |
| 2026-05-04 18:25 | 49.92318 | -1.54483 | 30047 ft | 470 kts | 22° |
| 2026-05-04 18:25 | 49.95386 | -1.52772 | 29422 ft | 466 kts | 22° |
| 2026-05-04 18:25 | 49.98419 | -1.51080 | 28896 ft | 460 kts | 22° |
| 2026-05-04 18:26 | 50.01403 | -1.49433 | 28358 ft | 455 kts | 21° |
| 2026-05-04 18:26 | 50.04397 | -1.47890 | 27812 ft | 449 kts | 20° |
| 2026-05-04 18:26 | 50.07367 | -1.46448 | 27294 ft | 444 kts | 19° |
| 2026-05-04 18:26 | 50.10311 | -1.45064 | 26763 ft | 439 kts | 19° |
| 2026-05-04 18:27 | 50.13218 | -1.43704 | 26249 ft | 434 kts | 19° |
| 2026-05-04 18:27 | 50.16096 | -1.42344 | 25732 ft | 429 kts | 19° |
| 2026-05-04 18:27 | 50.18939 | -1.40979 | 25238 ft | 425 kts | 19° |
| 2026-05-04 18:27 | 50.21745 | -1.39606 | 24751 ft | 421 kts | 19° |
| 2026-05-04 18:28 | 50.24525 | -1.38231 | 24259 ft | 417 kts | 20° |
| 2026-05-04 18:28 | 50.27275 | -1.36864 | 23787 ft | 412 kts | 19° |
| 2026-05-04 18:28 | 50.29988 | -1.35515 | 23283 ft | 408 kts | 19° |
| 2026-05-04 18:28 | 50.32675 | -1.34179 | 22832 ft | 401 kts | 19° |
| 2026-05-04 18:29 | 50.35319 | -1.32867 | 22401 ft | 395 kts | 19° |
| 2026-05-04 18:29 | 50.37919 | -1.31581 | 21973 ft | 389 kts | 19° |
| 2026-05-04 18:29 | 50.40478 | -1.30316 | 21552 ft | 383 kts | 19° |
| 2026-05-04 18:29 | 50.43007 | -1.29067 | 21131 ft | 378 kts | 19° |
| 2026-05-04 18:30 | 50.47941 | -1.26609 | 20302 ft | 366 kts | 21° |
| 2026-05-04 18:30 | 50.50233 | -1.24974 | 19887 ft | 359 kts | 31° |
| 2026-05-04 18:30 | 50.52287 | -1.22798 | 19474 ft | 353 kts | 41° |
| 2026-05-04 18:31 | 50.54156 | -1.20326 | 19052 ft | 350 kts | 41° |
| 2026-05-04 18:31 | 50.56013 | -1.17874 | 18631 ft | 347 kts | 41° |
| 2026-05-04 18:31 | 50.57859 | -1.15446 | 18189 ft | 345 kts | 41° |
| 2026-05-04 18:31 | 50.59691 | -1.13040 | 17735 ft | 342 kts | 41° |
| 2026-05-04 18:32 | 50.61515 | -1.10640 | 17310 ft | 340 kts | 41° |
| 2026-05-04 18:32 | 50.63323 | -1.08258 | 16889 ft | 338 kts | 41° |
| 2026-05-04 18:32 | 50.65123 | -1.05881 | 16450 ft | 337 kts | 42° |
| 2026-05-04 18:32 | 50.66748 | -1.03240 | 16022 ft | 336 kts | 51° |
| 2026-05-04 18:33 | 50.68223 | -1.00391 | 15596 ft | 334 kts | 51° |
| 2026-05-04 18:33 | 50.69691 | -0.97554 | 15159 ft | 333 kts | 51° |
| 2026-05-04 18:33 | 50.71152 | -0.94732 | 14728 ft | 331 kts | 51° |
| 2026-05-04 18:33 | 50.72592 | -0.91952 | 14505 ft | 321 kts | 51° |
| 2026-05-04 18:34 | 50.73981 | -0.89275 | 14321 ft | 311 kts | 51° |
| 2026-05-04 18:34 | 50.75340 | -0.86652 | 13986 ft | 307 kts | 51° |
| 2026-05-04 18:34 | 50.76669 | -0.84082 | 13817 ft | 297 kts | 51° |
| 2026-05-04 18:34 | 50.77945 | -0.81610 | 13671 ft | 283 kts | 51° |
| 2026-05-04 18:35 | 50.79170 | -0.79240 | 13536 ft | 273 kts | 51° |
| 2026-05-04 18:35 | 50.80308 | -0.76875 | 13262 ft | 268 kts | 59° |
| 2026-05-04 18:35 | 50.81125 | -0.74246 | 12926 ft | 267 kts | 70° |
| 2026-05-04 18:35 | 50.81591 | -0.71394 | 12524 ft | 268 kts | 80° |
| 2026-05-04 18:36 | 50.81919 | -0.68504 | 12191 ft | 264 kts | 80° |
| 2026-05-04 18:36 | 50.82247 | -0.65659 | 11835 ft | 262 kts | 80° |
| 2026-05-04 18:36 | 50.82574 | -0.62833 | 11507 ft | 260 kts | 80° |
| 2026-05-04 18:36 | 50.82897 | -0.60063 | 11180 ft | 259 kts | 80° |
| 2026-05-04 18:37 | 50.83222 | -0.57272 | 10854 ft | 258 kts | 80° |
| 2026-05-04 18:37 | 50.83541 | -0.54492 | 10531 ft | 256 kts | 80° |
| 2026-05-04 18:37 | 50.83858 | -0.51731 | 10208 ft | 255 kts | 80° |
| 2026-05-04 18:37 | 50.84175 | -0.48977 | 9883 ft | 253 kts | 80° |
| 2026-05-04 18:38 | 50.84491 | -0.46242 | 9545 ft | 252 kts | 80° |
| 2026-05-04 18:38 | 50.84805 | -0.43522 | 9212 ft | 251 kts | 80° |
| 2026-05-04 18:38 | 50.85116 | -0.40817 | 8893 ft | 249 kts | 80° |
| 2026-05-04 18:38 | 50.85428 | -0.38085 | 8566 ft | 248 kts | 80° |
| 2026-05-04 18:39 | 50.85733 | -0.35406 | 8261 ft | 247 kts | 80° |
| 2026-05-04 18:39 | 50.86033 | -0.32771 | 8032 ft | 245 kts | 80° |
| 2026-05-04 18:39 | 50.86337 | -0.30081 | 7994 ft | 246 kts | 80° |
| 2026-05-04 18:39 | 50.86635 | -0.27444 | 7999 ft | 246 kts | 80° |
| 2026-05-04 18:40 | 50.86938 | -0.24776 | 7998 ft | 246 kts | 80° |
| 2026-05-04 18:40 | 50.87242 | -0.22112 | 8008 ft | 246 kts | 80° |
| 2026-05-04 18:40 | 50.87541 | -0.19446 | 8003 ft | 247 kts | 80° |
| 2026-05-04 18:40 | 50.87839 | -0.16767 | 7999 ft | 247 kts | 81° |
| 2026-05-04 18:41 | 50.88258 | -0.14104 | 8003 ft | 248 kts | 64° |
| 2026-05-04 18:41 | 50.89364 | -0.12041 | 8000 ft | 249 kts | 34° |
| 2026-05-04 18:41 | 50.90959 | -0.11114 | 7758 ft | 245 kts | 4° |
| 2026-05-04 18:41 | 50.92593 | -0.11564 | 7338 ft | 244 kts | 334° |
| 2026-05-04 18:42 | 50.93856 | -0.13294 | 6930 ft | 242 kts | 302° |
| 2026-05-04 18:42 | 50.94519 | -0.15768 | 6512 ft | 241 kts | 288° |
| 2026-05-04 18:42 | 50.94997 | -0.18273 | 6091 ft | 240 kts | 286° |
| 2026-05-04 18:42 | 50.95456 | -0.20815 | 5669 ft | 239 kts | 287° |
| 2026-05-04 18:43 | 50.95898 | -0.23347 | 5248 ft | 238 kts | 286° |
| 2026-05-04 18:43 | 50.96323 | -0.25866 | 5008 ft | 230 kts | 286° |
| 2026-05-04 18:43 | 50.96718 | -0.28245 | 5007 ft | 220 kts | 286° |
| 2026-05-04 18:43 | 50.97103 | -0.30579 | 5011 ft | 218 kts | 286° |
| 2026-05-04 18:44 | 50.97487 | -0.32911 | 5010 ft | 218 kts | 286° |
| 2026-05-04 18:44 | 50.97617 | -0.33696 | 5010 ft | 218 kts | 286° |
| 2026-05-04 18:44 | 50.98227 | -0.37393 | 4871 ft | 197 kts | 286° |
| 2026-05-04 18:44 | 50.98576 | -0.39470 | 4577 ft | 193 kts | 286° |
| 2026-05-04 18:45 | 50.98920 | -0.41526 | 4221 ft | 193 kts | 286° |
| 2026-05-04 18:45 | 50.99259 | -0.43582 | 3857 ft | 193 kts | 286° |
| 2026-05-04 18:45 | 50.99641 | -0.45615 | 3506 ft | 192 kts | 298° |
| 2026-05-04 18:45 | 51.00529 | -0.47115 | 3188 ft | 185 kts | 327° |
| 2026-05-04 18:46 | 51.01600 | -0.48233 | 3007 ft | 185 kts | 330° |
| 2026-05-04 18:46 | 51.02697 | -0.49310 | 3009 ft | 186 kts | 331° |
| 2026-05-04 18:46 | 51.03800 | -0.50385 | 3013 ft | 186 kts | 331° |
| 2026-05-04 18:46 | 51.04905 | -0.51462 | 3021 ft | 186 kts | 331° |
| 2026-05-04 18:47 | 51.06010 | -0.52543 | 3005 ft | 186 kts | 331° |
| 2026-05-04 18:47 | 51.07128 | -0.53568 | 3009 ft | 185 kts | 341° |
| 2026-05-04 18:47 | 51.08362 | -0.53599 | 3016 ft | 180 kts | 22° |
| 2026-05-04 18:47 | 51.09329 | -0.52431 | 3025 ft | 170 kts | 47° |
| 2026-05-04 18:48 | 51.10075 | -0.51037 | 3012 ft | 162 kts | 51° |
| 2026-05-04 18:48 | 51.10541 | -0.49443 | 3015 ft | 161 kts | 79° |
| 2026-05-04 18:48 | 51.10772 | -0.47704 | 3008 ft | 160 kts | 74° |
| 2026-05-04 18:48 | 51.11038 | -0.45983 | 3029 ft | 160 kts | 75° |
| 2026-05-04 18:49 | 51.11290 | -0.44261 | 3008 ft | 160 kts | 75° |
| 2026-05-04 18:49 | 51.11536 | -0.42535 | 2925 ft | 160 kts | 76° |
| 2026-05-04 18:49 | 51.11778 | -0.40820 | 2759 ft | 158 kts | 75° |
| 2026-05-04 18:49 | 51.12018 | -0.39117 | 2560 ft | 157 kts | 75° |
| 2026-05-04 18:50 | 51.12256 | -0.37421 | 2351 ft | 157 kts | 76° |
| 2026-05-04 18:50 | 51.12494 | -0.35721 | 2141 ft | 157 kts | 76° |
| 2026-05-04 18:50 | 51.12730 | -0.34026 | 1920 ft | 157 kts | 76° |
| 2026-05-04 18:50 | 51.12968 | -0.32327 | 1720 ft | 157 kts | 76° |
| 2026-05-04 18:51 | 51.13203 | -0.30637 | 1497 ft | 156 kts | 76° |
| 2026-05-04 18:51 | 51.13429 | -0.29011 | 1291 ft | 146 kts | 76° |
| 2026-05-04 18:51 | 51.13645 | -0.27459 | 1092 ft | 142 kts | 76° |
| 2026-05-04 18:51 | 51.13857 | -0.25931 | 887 ft | 141 kts | 76° |
| 2026-05-04 18:52 | 51.14071 | -0.24402 | 718 ft | 142 kts | 76° |
| 2026-05-04 18:52 | 51.14281 | -0.22873 | 530 ft | 141 kts | 76° |
| 2026-05-04 18:52 | 51.14427 | -0.21869 | 406 ft | 140 kts | 76° |
| 2026-05-04 18:52 | 51.14632 | -0.20352 | 232 ft | 140 kts | 76° |
| 2026-05-04 18:53 | 51.14820 | -0.18988 | 207 ft | 109 kts | 78° |
| 2026-05-04 18:53 | 51.14945 | -0.18079 | 211 ft | 59 kts | 77° |
| 2026-05-04 18:53 | 51.15005 | -0.17652 | 212 ft | 33 kts | 78° |
| 2026-05-04 18:53 | 51.15064 | -0.17347 | 211 ft | 28 kts | 63° |
| 2026-05-04 18:54 | 51.15152 | -0.17216 | 208 ft | 13 kts | 347° |
| 2026-05-04 18:54 | 51.15210 | -0.17276 | 210 ft | 6 kts | 325° |
| 2026-05-04 18:54 | 51.15232 | -0.17301 | 215 ft | 0 kts | 325° |
| 2026-05-04 18:54 | 51.15238 | -0.17307 | 214 ft | 2 kts | 325° |
| 2026-05-04 18:55 | 51.15256 | -0.17327 | 209 ft | 4 kts | 325° |
| 2026-05-04 18:55 | 51.15263 | -0.17333 | 206 ft | 0 kts | 335° |
| 2026-05-04 18:55 | 51.15266 | -0.17335 | 215 ft | 1 kts | 335° |
| 2026-05-04 18:56 | 51.15281 | -0.17344 | 210 ft | 4 kts | 341° |
| 2026-05-04 18:56 | 51.15323 | -0.17360 | 210 ft | 8 kts | 347° |
| 2026-05-04 18:56 | 51.15360 | -0.17316 | 207 ft | 8 kts | 67° |
| 2026-05-04 18:56 | 51.15385 | -0.17204 | 206 ft | 14 kts | 73° |
| 2026-05-04 18:57 | 51.15417 | -0.17054 | 207 ft | 15 kts | 78° |
| 2026-05-04 18:57 | 51.15440 | -0.16885 | 204 ft | 16 kts | 77° |
| 2026-05-04 18:57 | 51.15463 | -0.16826 | 207 ft | 4 kts | 352° |
| 2026-05-04 18:57 | 51.15494 | -0.16839 | 208 ft | 2 kts | 347° |
| 2026-05-04 18:58 | 51.15505 | -0.16843 | 204 ft | 0 kts | 347° |